createdAt,value
2018-03-16T00:01:28.584Z,75.47
2018-03-16T00:04:32.731Z,76.44
2018-03-16T00:07:36.019Z,76.84
2018-03-16T00:10:39.315Z,76.71
2018-03-16T00:13:42.703Z,77.19
2018-03-16T00:16:46.006Z,78.04
2018-03-16T00:19:50.131Z,77.93
2018-03-16T00:22:53.424Z,78.64
2018-03-16T00:25:56.753Z,78.34
2018-03-16T00:29:00.055Z,78.87
2018-03-16T00:32:03.340Z,79.27
2018-03-16T00:35:06.649Z,79.28
2018-03-16T00:38:10.015Z,79.09
2018-03-16T00:41:13.323Z,80.13
2018-03-16T00:44:16.628Z,80.81
2018-03-16T00:47:19.935Z,80.50
2018-03-16T00:50:23.246Z,80.34
2018-03-16T00:53:26.531Z,80.21
2018-03-16T00:56:29.838Z,80.87
2018-03-16T00:59:33.132Z,81.02
2018-03-16T01:02:36.423Z,81.61
2018-03-16T01:05:39.940Z,81.67
2018-03-16T01:08:43.249Z,81.57
2018-03-16T01:11:46.555Z,81.96
2018-03-16T01:14:49.867Z,82.48
2018-03-16T01:17:53.162Z,82.47
2018-03-16T01:20:56.468Z,82.42
2018-03-16T01:23:59.759Z,82.68
2018-03-16T01:27:03.058Z,82.75
2018-03-16T01:30:07.180Z,82.91
2018-03-16T01:33:11.236Z,82.53
2018-03-16T01:36:14.538Z,82.90
2018-03-16T01:39:17.843Z,82.88
2018-03-16T01:42:21.131Z,82.45
2018-03-16T01:45:24.507Z,82.71
2018-03-16T01:48:27.803Z,82.86
2018-03-16T01:51:31.867Z,82.76
2018-03-16T01:54:35.424Z,82.45
2018-03-16T01:57:38.714Z,82.66
2018-03-16T02:00:42.780Z,82.83
2018-03-16T02:03:46.088Z,82.53
2018-03-16T02:06:49.381Z,83.32
2018-03-16T02:09:52.689Z,82.71
2018-03-16T02:12:55.977Z,82.16
2018-03-16T02:15:59.282Z,82.79
2018-03-16T02:19:02.579Z,83.03
2018-03-16T02:22:05.877Z,82.96
2018-03-16T02:25:09.178Z,83.04
2018-03-16T02:28:12.493Z,83.42
2018-03-16T02:31:15.809Z,83.51
2018-03-16T02:34:19.879Z,83.26
2018-03-16T02:37:23.184Z,83.52
2018-03-16T02:40:26.475Z,83.67
2018-03-16T02:43:29.769Z,83.14
2018-03-16T02:46:33.082Z,83.02
2018-03-16T02:49:36.388Z,83.47
2018-03-16T02:52:40.457Z,83.13
2018-03-16T02:55:43.779Z,83.05
2018-03-16T02:58:47.085Z,83.07
2018-03-16T03:01:50.392Z,83.13
2018-03-16T03:04:53.694Z,83.80
2018-03-16T03:07:56.993Z,83.48
2018-03-16T03:11:00.298Z,83.68
2018-03-16T03:14:03.605Z,83.39
2018-03-16T03:17:07.669Z,83.26
2018-03-16T03:20:11.013Z,82.85
2018-03-16T03:23:15.088Z,83.00
2018-03-16T03:26:18.389Z,83.37
2018-03-16T03:29:21.690Z,83.32
2018-03-16T03:32:24.986Z,82.61
2018-03-16T03:35:28.295Z,83.06
2018-03-16T03:38:33.283Z,82.66
2018-03-16T03:41:36.605Z,83.02
2018-03-16T03:44:39.924Z,82.77
2018-03-16T03:47:43.239Z,83.18
2018-03-16T03:50:46.552Z,83.23
2018-03-16T03:53:50.691Z,82.96
2018-03-16T03:56:53.992Z,82.78
2018-03-16T03:59:57.291Z,83.47
2018-03-16T04:03:01.355Z,83.77
2018-03-16T04:06:04.675Z,83.57
2018-03-16T04:09:08.851Z,83.50
2018-03-16T04:12:12.148Z,83.98
2018-03-16T04:15:15.458Z,84.02
2018-03-16T04:18:18.755Z,83.77
2018-03-16T04:21:22.059Z,83.71
2018-03-16T04:24:25.372Z,83.49
2018-03-16T04:27:28.689Z,83.86
2018-03-16T04:30:32.946Z,83.75
2018-03-16T04:33:36.257Z,84.13
2018-03-16T04:36:39.556Z,84.31
2018-03-16T04:39:42.849Z,84.27
2018-03-16T04:42:46.163Z,84.11
2018-03-16T04:45:49.479Z,83.79
2018-03-16T04:48:52.772Z,84.18
2018-03-16T04:51:56.119Z,83.83
2018-03-16T04:54:59.417Z,83.58
2018-03-16T04:58:02.713Z,83.80
2018-03-16T05:01:06.789Z,83.70
2018-03-16T05:04:10.120Z,83.85
2018-03-16T05:07:14.228Z,83.63
2018-03-16T05:10:17.885Z,84.01
2018-03-16T05:13:21.255Z,84.01
2018-03-16T05:16:30.394Z,84.01
2018-03-16T05:19:34.063Z,83.89
2018-03-16T05:23:03.625Z,83.90
2018-03-16T05:26:09.078Z,84.07
2018-03-16T05:29:12.895Z,84.04
2018-03-16T05:32:16.306Z,83.67
2018-03-16T05:35:19.948Z,83.56
2018-03-16T05:38:24.396Z,83.26
2018-03-16T05:41:29.144Z,83.24
2018-03-16T05:44:33.600Z,83.12
2018-03-16T05:47:36.939Z,83.31
2018-03-16T05:50:42.152Z,83.02
2018-03-16T05:53:45.459Z,83.03
2018-03-16T05:56:48.804Z,82.88
2018-03-16T05:59:52.428Z,82.41
2018-03-16T06:02:55.870Z,82.28
2018-03-16T06:05:59.266Z,82.28
2018-03-16T06:09:13.397Z,82.15
2018-03-16T06:12:18.267Z,81.64
2018-03-16T06:15:21.624Z,81.67
2018-03-16T06:18:24.985Z,81.58
2018-03-16T06:21:29.118Z,80.97
2018-03-16T06:24:33.196Z,80.67
2018-03-16T06:27:36.523Z,80.33
2018-03-16T06:30:40.887Z,80.52
2018-03-16T06:33:45.875Z,80.44
2018-03-16T06:36:49.203Z,79.98
2018-03-16T06:39:52.539Z,79.93
2018-03-16T06:42:55.876Z,79.51
2018-03-16T06:45:59.965Z,78.73
2018-03-16T06:49:03.349Z,78.58
2018-03-16T06:52:06.670Z,78.00
2018-03-16T06:55:10.186Z,78.22
2018-03-16T06:58:13.499Z,77.73
2018-03-16T07:01:17.677Z,77.45
2018-03-16T07:04:20.978Z,77.53
2018-03-16T07:07:24.306Z,77.47
2018-03-16T07:10:28.398Z,77.86
2018-03-16T07:13:31.716Z,78.48
2018-03-16T07:16:35.808Z,77.84
2018-03-16T07:19:39.102Z,77.23
2018-03-16T07:22:42.412Z,78.00
2018-03-16T07:25:45.715Z,77.73
2018-03-16T07:28:49.034Z,77.48
2018-03-16T07:31:53.407Z,77.51
2018-03-16T07:34:56.719Z,77.59
2018-03-16T07:38:00.043Z,76.88
2018-03-16T07:41:03.342Z,76.59
2018-03-16T07:44:06.647Z,76.51
2018-03-16T07:47:10.714Z,76.59
2018-03-16T07:50:14.011Z,76.47
2018-03-16T07:53:17.420Z,76.77
2018-03-16T07:56:20.723Z,76.82
2018-03-16T07:59:24.032Z,76.67
2018-03-16T08:02:27.340Z,76.25
2018-03-16T08:05:30.646Z,76.91
2018-03-16T08:08:34.720Z,75.18
2018-03-16T08:11:38.054Z,75.72
2018-03-16T08:14:41.357Z,73.77
2018-03-16T08:17:45.436Z,72.88
2018-03-16T08:20:48.727Z,72.83
2018-03-16T08:23:52.032Z,70.74
2018-03-16T08:26:55.696Z,70.59
2018-03-16T08:29:59.103Z,69.46
2018-03-16T08:33:02.596Z,68.50
2018-03-16T08:36:06.281Z,68.76
2018-03-16T08:39:09.657Z,67.79
2018-03-16T08:42:12.989Z,66.63
2018-03-16T08:45:17.188Z,66.85
2018-03-16T08:48:20.489Z,65.22
2018-03-16T08:51:24.554Z,65.16
2018-03-16T08:54:27.975Z,63.92
2018-03-16T08:57:31.313Z,63.71
2018-03-16T09:00:35.411Z,62.12
2018-03-16T09:03:38.743Z,60.52
2018-03-16T09:06:42.073Z,59.12
2018-03-16T09:09:45.434Z,57.14
2018-03-16T09:12:49.634Z,54.54
2018-03-16T09:15:53.849Z,57.30
2018-03-16T09:18:57.264Z,54.86
2018-03-16T09:22:01.370Z,54.50
2018-03-16T09:25:05.483Z,55.58
2018-03-16T09:28:12.596Z,57.91
2018-03-16T09:31:16.763Z,55.61
2018-03-16T09:34:20.083Z,54.69
2018-03-16T09:37:23.460Z,55.22
2018-03-16T09:40:26.779Z,52.33
2018-03-16T09:43:30.096Z,51.91
2018-03-16T09:46:34.239Z,56.18
2018-03-16T09:49:37.559Z,54.28
2018-03-16T09:52:40.868Z,54.61
2018-03-16T09:55:44.194Z,51.98
2018-03-16T09:58:47.515Z,50.86
2018-03-16T10:01:51.607Z,50.64
2018-03-16T10:04:54.953Z,51.46
2018-03-16T10:07:58.555Z,51.05
2018-03-16T10:11:01.905Z,53.14
2018-03-16T10:14:05.372Z,51.87
2018-03-16T10:17:08.673Z,52.20
2018-03-16T10:20:12.190Z,52.30
2018-03-16T10:23:17.014Z,53.58
2018-03-16T10:26:20.339Z,53.14
2018-03-16T10:29:25.032Z,52.85
2018-03-16T10:32:28.367Z,51.96
2018-03-16T10:35:31.755Z,51.84
2018-03-16T10:38:35.083Z,53.04
2018-03-16T10:41:38.415Z,52.99
2018-03-16T10:44:41.775Z,51.53
2018-03-16T10:47:45.086Z,50.03
2018-03-16T10:50:49.175Z,48.84
2018-03-16T10:53:52.558Z,49.41
2018-03-16T10:56:55.923Z,49.60
2018-03-16T10:59:59.380Z,49.70
2018-03-16T11:03:07.678Z,52.48
2018-03-16T11:06:11.031Z,49.84
2018-03-16T11:09:24.072Z,50.81
2018-03-16T11:12:28.223Z,51.68
2018-03-16T11:18:46.221Z,52.69
2018-03-16T11:21:50.424Z,53.36
2018-03-16T11:24:54.524Z,52.86
2018-03-16T11:27:57.841Z,54.88
2018-03-16T11:31:01.276Z,53.20
2018-03-16T11:34:04.621Z,51.07
2018-03-16T11:37:07.936Z,52.82
2018-03-16T11:40:11.240Z,51.02
2018-03-16T11:43:14.651Z,51.79
2018-03-16T11:46:18.083Z,52.19
2018-03-16T11:49:21.440Z,53.36
2018-03-16T11:52:25.560Z,53.31
2018-03-16T11:55:28.876Z,53.16
2018-03-16T11:58:33.145Z,51.58
2018-03-16T12:01:36.468Z,51.33
2018-03-16T12:04:39.797Z,50.46
2018-03-16T12:07:43.132Z,49.86
2018-03-16T12:10:46.538Z,49.59
2018-03-16T12:13:50.148Z,49.64
2018-03-16T12:16:53.508Z,50.35
2018-03-16T12:19:56.825Z,51.17
2018-03-16T12:23:00.453Z,50.36
2018-03-16T12:26:03.775Z,50.60
2018-03-16T12:29:07.453Z,51.87
2018-03-16T12:32:11.367Z,53.86
2018-03-16T12:35:15.638Z,53.97
2018-03-16T12:38:19.709Z,53.07
2018-03-16T12:41:23.024Z,56.21
2018-03-16T12:44:27.852Z,56.36
2018-03-16T12:47:31.151Z,59.74
2018-03-16T12:50:34.660Z,59.39
2018-03-16T12:53:38.025Z,60.17
2018-03-16T12:56:41.457Z,59.76
2018-03-16T12:59:45.632Z,59.29
2018-03-16T13:02:48.938Z,60.46
2018-03-16T13:05:52.473Z,60.00
2018-03-16T13:08:56.331Z,58.77
2018-03-16T13:11:59.662Z,57.97
2018-03-16T13:15:04.206Z,56.97
2018-03-16T13:18:07.512Z,55.15
2018-03-16T13:21:11.612Z,53.78
2018-03-16T13:24:14.953Z,54.77
2018-03-16T13:27:19.123Z,54.82
2018-03-16T13:30:22.888Z,52.94
2018-03-16T13:33:26.308Z,54.84
2018-03-16T13:36:29.883Z,53.27
2018-03-16T13:39:33.988Z,54.33
2018-03-16T13:42:38.075Z,53.96
2018-03-16T13:45:41.387Z,53.99
2018-03-16T13:48:46.172Z,53.07
2018-03-16T13:51:49.516Z,53.80
2018-03-16T13:54:53.319Z,52.19
2018-03-16T13:57:56.931Z,53.64
2018-03-16T14:01:00.360Z,52.92
2018-03-16T14:04:03.792Z,54.39
2018-03-16T14:07:07.105Z,55.12
2018-03-16T14:10:11.445Z,54.71
2018-03-16T14:13:14.823Z,55.11
2018-03-16T14:16:18.145Z,53.86
2018-03-16T14:19:21.516Z,53.07
2018-03-16T14:22:25.966Z,52.53
2018-03-16T14:25:30.500Z,52.40
2018-03-16T14:28:34.131Z,52.07
2018-03-16T14:31:37.496Z,53.45
2018-03-16T14:34:41.637Z,53.08
2018-03-16T14:37:44.951Z,50.23
2018-03-16T14:40:48.257Z,49.33
2018-03-16T14:43:51.587Z,50.36
2018-03-16T14:46:54.950Z,49.55
2018-03-16T14:49:58.306Z,49.31
2018-03-16T14:53:02.376Z,49.00
2018-03-16T14:56:05.695Z,48.29
2018-03-16T14:59:09.006Z,50.18
2018-03-16T15:02:12.380Z,49.64
2018-03-16T15:05:15.754Z,47.35
2018-03-16T15:08:19.574Z,49.18
2018-03-16T15:11:22.909Z,47.94
2018-03-16T15:14:27.011Z,46.30
2018-03-16T15:17:30.321Z,45.68
2018-03-16T15:20:33.924Z,45.88
2018-03-16T15:23:37.992Z,47.14
2018-03-16T15:26:41.414Z,46.43
2018-03-16T15:29:44.728Z,46.42
2018-03-16T15:32:47.963Z,45.99
2018-03-16T15:35:52.022Z,47.49
2018-03-16T15:38:55.289Z,46.12
2018-03-16T15:41:58.704Z,44.65
2018-03-16T15:45:01.986Z,45.81
2018-03-16T15:48:05.473Z,46.57
2018-03-16T15:51:09.597Z,52.05
2018-03-16T15:54:12.930Z,59.20
2018-03-16T15:57:16.245Z,58.78
2018-03-16T16:00:20.866Z,60.96
2018-03-16T16:03:24.165Z,61.13
2018-03-16T16:06:27.696Z,62.20
2018-03-16T16:09:32.042Z,62.65
2018-03-16T16:12:36.067Z,62.41
2018-03-16T16:15:39.453Z,62.75
2018-03-16T16:18:42.737Z,62.45
2018-03-16T16:21:46.812Z,62.30
2018-03-16T16:24:50.167Z,62.28
2018-03-16T16:27:53.437Z,61.88
2018-03-16T16:30:56.698Z,62.17
2018-03-16T16:34:00.061Z,61.90
2018-03-16T16:37:04.124Z,62.30
2018-03-16T16:40:07.372Z,63.68
2018-03-16T16:43:10.645Z,63.85
2018-03-16T16:46:14.682Z,63.41
2018-03-16T16:49:18.694Z,63.25
2018-03-16T16:52:22.754Z,63.21
2018-03-16T16:55:26.020Z,63.33
2018-03-16T16:58:29.293Z,63.51
2018-03-16T17:01:33.341Z,63.99
2018-03-16T17:04:36.622Z,63.71
2018-03-16T17:07:39.885Z,64.08
2018-03-16T17:10:43.175Z,63.76
2018-03-16T17:13:46.441Z,63.75
2018-03-16T17:16:49.952Z,64.56
2018-03-16T17:19:53.215Z,64.62
2018-03-16T17:22:56.474Z,64.69
2018-03-16T17:25:59.814Z,64.89
2018-03-16T17:29:03.068Z,64.78
2018-03-16T17:32:06.331Z,65.29
2018-03-16T17:35:09.597Z,65.37
2018-03-16T17:38:13.378Z,64.76
2018-03-16T17:41:16.709Z,65.21
2018-03-16T17:44:19.998Z,65.05
2018-03-16T17:47:24.126Z,65.42
2018-03-16T17:50:27.383Z,66.03
2018-03-16T17:53:31.578Z,66.96
2018-03-16T17:56:34.866Z,66.79
2018-03-16T17:59:38.126Z,67.07
2018-03-16T18:02:41.560Z,67.35
2018-03-16T18:05:44.897Z,67.79
2018-03-16T18:08:48.173Z,67.71
2018-03-16T18:11:51.478Z,67.68
2018-03-16T18:14:54.825Z,67.84
2018-03-16T18:17:58.125Z,68.94
2018-03-16T18:21:01.588Z,68.30
2018-03-16T18:24:04.861Z,68.72
2018-03-16T18:27:08.185Z,69.22
2018-03-16T18:30:12.382Z,69.27
2018-03-16T18:33:15.949Z,69.39
2018-03-16T18:36:19.328Z,70.11
2018-03-16T18:39:23.447Z,69.67
2018-03-16T18:42:27.938Z,69.60
2018-03-16T18:45:32.212Z,70.09
2018-03-16T18:48:35.578Z,70.29
2018-03-16T18:51:38.925Z,70.80
2018-03-16T18:54:42.204Z,70.92
2018-03-16T18:57:45.486Z,71.34
2018-03-16T19:00:49.533Z,71.72
2018-03-16T19:03:52.882Z,72.26
2018-03-16T19:06:56.956Z,71.25
2018-03-16T19:10:00.207Z,73.48
2018-03-16T19:13:04.320Z,74.22
2018-03-16T19:16:10.061Z,75.66
2018-03-16T19:19:13.406Z,75.02
2018-03-16T19:22:16.689Z,75.31
2018-03-16T19:25:19.982Z,74.24
2018-03-16T19:28:23.233Z,74.31
2018-03-16T19:31:26.512Z,74.43
2018-03-16T19:34:29.774Z,74.69
2018-03-16T19:37:33.977Z,74.73
2018-03-16T19:40:38.047Z,74.35
2018-03-16T19:43:41.322Z,74.69
2018-03-16T19:46:44.637Z,74.64
2018-03-16T19:49:47.922Z,74.46
2018-03-16T19:52:51.386Z,74.98
2018-03-16T19:55:55.464Z,75.58
2018-03-16T19:58:58.775Z,75.05
2018-03-16T20:02:02.067Z,75.40
2018-03-16T20:05:05.362Z,75.35
2018-03-16T20:08:08.742Z,74.98
2018-03-16T20:11:12.164Z,74.26
2018-03-16T20:14:15.461Z,74.84
2018-03-16T20:17:18.810Z,75.19
2018-03-16T20:20:22.942Z,75.52
2018-03-16T20:23:26.253Z,75.82
2018-03-16T20:26:29.734Z,75.84
2018-03-16T20:29:33.839Z,76.13
2018-03-16T20:32:37.899Z,76.11
2018-03-16T20:35:41.169Z,76.30
2018-03-16T20:38:45.713Z,76.37
2018-03-16T20:41:49.025Z,76.77
2018-03-16T20:44:52.294Z,76.91
2018-03-16T20:47:55.598Z,76.91
2018-03-16T20:50:58.857Z,76.60
2018-03-16T20:54:02.124Z,76.53
2018-03-16T20:57:05.392Z,77.16
2018-03-16T21:00:08.681Z,77.46
2018-03-16T21:03:11.985Z,77.69
2018-03-16T21:06:15.329Z,77.56
2018-03-16T21:09:18.563Z,78.23
2018-03-16T21:12:22.680Z,79.11
2018-03-16T21:15:26.699Z,77.19
2018-03-16T21:18:30.713Z,77.17
2018-03-16T21:21:34.965Z,76.90
2018-03-16T21:24:38.248Z,77.58
2018-03-16T21:27:41.737Z,77.72
2018-03-16T21:30:46.162Z,76.88
2018-03-16T21:33:50.187Z,77.13
2018-03-16T21:36:54.330Z,76.79
2018-03-16T21:39:57.593Z,76.69
2018-03-16T21:43:02.894Z,76.99
2018-03-16T21:46:07.474Z,77.31
2018-03-16T21:49:10.871Z,77.06
2018-03-16T21:52:14.245Z,77.45
2018-03-16T21:55:17.573Z,77.53
2018-03-16T21:58:20.843Z,76.84
2018-03-16T22:01:24.922Z,77.30
2018-03-16T22:04:28.196Z,77.24
2018-03-16T22:07:31.475Z,78.02
2018-03-16T22:10:34.741Z,77.99
2018-03-16T22:13:38.007Z,78.66
2018-03-16T22:16:41.253Z,78.85
2018-03-16T22:19:45.305Z,78.81
2018-03-16T22:22:48.577Z,78.58
2018-03-16T22:25:52.697Z,78.80
2018-03-16T22:28:55.966Z,78.42
2018-03-16T22:31:59.217Z,78.49
2018-03-16T22:35:02.483Z,79.00
2018-03-16T22:38:06.505Z,79.63
2018-03-16T22:41:09.767Z,80.19
2018-03-16T22:44:13.061Z,80.49
2018-03-16T22:47:16.392Z,80.27
2018-03-16T22:50:19.672Z,80.34
2018-03-16T22:53:23.700Z,80.71
2018-03-16T22:56:27.780Z,80.67
2018-03-16T22:59:31.054Z,79.16
2018-03-16T23:02:34.297Z,78.83
2018-03-16T23:05:38.532Z,79.15
2018-03-16T23:08:41.817Z,77.91
2018-03-16T23:11:45.837Z,79.53
2018-03-16T23:14:49.866Z,80.13
2018-03-16T23:17:53.202Z,79.58
2018-03-16T23:20:56.463Z,80.34
2018-03-16T23:23:59.728Z,80.88
2018-03-16T23:27:02.977Z,79.41
2018-03-16T23:30:06.233Z,79.08
2018-03-16T23:33:10.258Z,79.50
2018-03-16T23:36:14.276Z,78.27
2018-03-16T23:39:17.554Z,78.21
2018-03-16T23:42:21.619Z,77.80
2018-03-16T23:45:24.894Z,77.72
2018-03-16T23:48:28.159Z,78.89
2018-03-16T23:51:31.419Z,80.09
2018-03-16T23:54:34.776Z,79.79
2018-03-16T23:57:38.892Z,79.88
